sensor_id;sensor_type;location;lat;lon;timestamp;P1;durP1;ratioP1;P2;durP2;ratioP2
65096;SDS011;51686;46.758;4.356;2023-04-24T00:01:11;1.95;;;1.00;;
65096;SDS011;51686;46.758;4.356;2023-04-24T00:03:59;1.80;;;1.15;;
65096;SDS011;51686;46.758;4.356;2023-04-24T00:06:47;2.53;;;1.17;;
65096;SDS011;51686;46.758;4.356;2023-04-24T00:09:40;1.90;;;1.27;;
65096;SDS011;51686;46.758;4.356;2023-04-24T00:12:27;2.15;;;1.15;;
65096;SDS011;51686;46.758;4.356;2023-04-24T00:15:14;3.38;;;1.20;;
65096;SDS011;51686;46.758;4.356;2023-04-24T00:18:01;2.85;;;1.30;;
65096;SDS011;51686;46.758;4.356;2023-04-24T00:20:49;3.03;;;1.13;;
65096;SDS011;51686;46.758;4.356;2023-04-24T00:23:36;3.60;;;1.40;;
65096;SDS011;51686;46.758;4.356;2023-04-24T00:26:23;4.97;;;1.35;;
65096;SDS011;51686;46.758;4.356;2023-04-24T00:29:09;3.88;;;1.40;;
65096;SDS011;51686;46.758;4.356;2023-04-24T00:31:56;4.32;;;1.40;;
65096;SDS011;51686;46.758;4.356;2023-04-24T00:34:43;2.70;;;1.40;;
65096;SDS011;51686;46.758;4.356;2023-04-24T00:37:30;3.30;;;1.27;;
65096;SDS011;51686;46.758;4.356;2023-04-24T00:40:18;3.13;;;1.33;;
65096;SDS011;51686;46.758;4.356;2023-04-24T00:43:04;4.65;;;1.50;;
65096;SDS011;51686;46.758;4.356;2023-04-24T00:45:53;2.50;;;1.25;;
65096;SDS011;51686;46.758;4.356;2023-04-24T00:48:41;3.47;;;1.50;;
65096;SDS011;51686;46.758;4.356;2023-04-24T00:51:28;4.10;;;1.60;;
65096;SDS011;51686;46.758;4.356;2023-04-24T00:54:15;3.70;;;1.55;;
65096;SDS011;51686;46.758;4.356;2023-04-24T00:57:02;3.05;;;1.42;;
65096;SDS011;51686;46.758;4.356;2023-04-24T00:59:50;4.60;;;1.70;;
65096;SDS011;51686;46.758;4.356;2023-04-24T01:02:39;2.67;;;1.38;;
65096;SDS011;51686;46.758;4.356;2023-04-24T01:08:13;2.63;;;1.42;;
65096;SDS011;51686;46.758;4.356;2023-04-24T01:11:01;4.32;;;1.60;;
65096;SDS011;51686;46.758;4.356;2023-04-24T01:13:49;3.67;;;1.55;;
65096;SDS011;51686;46.758;4.356;2023-04-24T01:16:36;4.68;;;1.35;;
65096;SDS011;51686;46.758;4.356;2023-04-24T01:19:24;3.58;;;1.67;;
65096;SDS011;51686;46.758;4.356;2023-04-24T01:22:14;2.70;;;1.60;;
65096;SDS011;51686;46.758;4.356;2023-04-24T01:25:02;5.50;;;2.00;;
65096;SDS011;51686;46.758;4.356;2023-04-24T01:27:50;5.10;;;1.92;;
65096;SDS011;51686;46.758;4.356;2023-04-24T01:30:38;4.20;;;1.67;;
65096;SDS011;51686;46.758;4.356;2023-04-24T01:33:24;4.28;;;1.88;;
65096;SDS011;51686;46.758;4.356;2023-04-24T01:36:12;4.07;;;1.77;;
65096;SDS011;51686;46.758;4.356;2023-04-24T01:39:00;4.93;;;1.80;;
65096;SDS011;51686;46.758;4.356;2023-04-24T01:41:47;4.78;;;1.92;;
65096;SDS011;51686;46.758;4.356;2023-04-24T01:44:36;4.25;;;2.00;;
65096;SDS011;51686;46.758;4.356;2023-04-24T01:47:23;4.32;;;1.70;;
65096;SDS011;51686;46.758;4.356;2023-04-24T01:50:10;5.40;;;1.90;;
65096;SDS011;51686;46.758;4.356;2023-04-24T01:52:57;5.43;;;2.20;;
65096;SDS011;51686;46.758;4.356;2023-04-24T01:55:44;4.47;;;1.80;;
65096;SDS011;51686;46.758;4.356;2023-04-24T01:58:31;4.88;;;1.90;;
65096;SDS011;51686;46.758;4.356;2023-04-24T02:01:19;4.90;;;1.73;;
65096;SDS011;51686;46.758;4.356;2023-04-24T02:04:08;3.78;;;1.98;;
65096;SDS011;51686;46.758;4.356;2023-04-24T02:06:55;5.50;;;2.28;;
65096;SDS011;51686;46.758;4.356;2023-04-24T02:09:42;4.70;;;1.85;;
65096;SDS011;51686;46.758;4.356;2023-04-24T02:12:30;5.00;;;2.10;;
65096;SDS011;51686;46.758;4.356;2023-04-24T02:15:16;3.58;;;1.85;;
65096;SDS011;51686;46.758;4.356;2023-04-24T02:18:04;3.50;;;1.80;;
65096;SDS011;51686;46.758;4.356;2023-04-24T02:20:51;4.72;;;1.80;;
65096;SDS011;51686;46.758;4.356;2023-04-24T02:23:38;2.85;;;1.70;;
65096;SDS011;51686;46.758;4.356;2023-04-24T02:26:25;4.43;;;1.65;;
65096;SDS011;51686;46.758;4.356;2023-04-24T02:29:12;4.90;;;1.83;;
65096;SDS011;51686;46.758;4.356;2023-04-24T02:31:59;4.75;;;1.92;;
65096;SDS011;51686;46.758;4.356;2023-04-24T02:34:46;6.00;;;2.10;;
65096;SDS011;51686;46.758;4.356;2023-04-24T02:37:33;4.82;;;1.80;;
65096;SDS011;51686;46.758;4.356;2023-04-24T02:40:20;6.57;;;2.00;;
65096;SDS011;51686;46.758;4.356;2023-04-24T02:43:07;5.07;;;2.10;;
65096;SDS011;51686;46.758;4.356;2023-04-24T02:45:53;4.30;;;2.00;;
65096;SDS011;51686;46.758;4.356;2023-04-24T02:48:40;4.13;;;1.90;;
65096;SDS011;51686;46.758;4.356;2023-04-24T02:51:27;5.18;;;2.00;;
65096;SDS011;51686;46.758;4.356;2023-04-24T02:54:14;4.78;;;1.73;;
65096;SDS011;51686;46.758;4.356;2023-04-24T02:57:01;3.50;;;1.88;;
65096;SDS011;51686;46.758;4.356;2023-04-24T02:59:49;5.00;;;1.77;;
65096;SDS011;51686;46.758;4.356;2023-04-24T03:02:35;5.55;;;2.10;;
65096;SDS011;51686;46.758;4.356;2023-04-24T03:05:23;4.40;;;1.80;;
65096;SDS011;51686;46.758;4.356;2023-04-24T03:08:09;4.85;;;2.05;;
65096;SDS011;51686;46.758;4.356;2023-04-24T03:10:57;4.03;;;1.80;;
65096;SDS011;51686;46.758;4.356;2023-04-24T03:13:43;5.25;;;2.22;;
65096;SDS011;51686;46.758;4.356;2023-04-24T03:16:30;4.97;;;1.85;;
65096;SDS011;51686;46.758;4.356;2023-04-24T03:19:17;5.13;;;1.90;;
65096;SDS011;51686;46.758;4.356;2023-04-24T03:22:04;4.50;;;1.90;;
65096;SDS011;51686;46.758;4.356;2023-04-24T03:24:51;4.15;;;1.90;;
65096;SDS011;51686;46.758;4.356;2023-04-24T03:27:38;4.75;;;1.85;;
65096;SDS011;51686;46.758;4.356;2023-04-24T03:30:25;5.50;;;2.08;;
65096;SDS011;51686;46.758;4.356;2023-04-24T03:33:12;4.45;;;2.20;;
65096;SDS011;51686;46.758;4.356;2023-04-24T03:35:59;5.10;;;2.10;;
65096;SDS011;51686;46.758;4.356;2023-04-24T03:38:46;4.43;;;1.80;;
65096;SDS011;51686;46.758;4.356;2023-04-24T03:44:56;3.75;;;1.95;;
65096;SDS011;51686;46.758;4.356;2023-04-24T03:47:47;4.55;;;2.08;;
65096;SDS011;51686;46.758;4.356;2023-04-24T03:50:39;4.07;;;1.92;;
65096;SDS011;51686;46.758;4.356;2023-04-24T03:53:44;4.28;;;1.77;;
65096;SDS011;51686;46.758;4.356;2023-04-24T03:56:50;4.72;;;2.05;;
65096;SDS011;51686;46.758;4.356;2023-04-24T04:00:03;3.97;;;1.92;;
65096;SDS011;51686;46.758;4.356;2023-04-24T04:06:35;5.10;;;2.30;;
65096;SDS011;51686;46.758;4.356;2023-04-24T04:09:46;4.55;;;2.17;;
65096;SDS011;51686;46.758;4.356;2023-04-24T04:12:48;6.30;;;2.20;;
65096;SDS011;51686;46.758;4.356;2023-04-24T04:15:55;4.72;;;2.10;;
65096;SDS011;51686;46.758;4.356;2023-04-24T04:18:48;5.32;;;2.10;;
65096;SDS011;51686;46.758;4.356;2023-04-24T04:21:46;4.18;;;2.00;;
65096;SDS011;51686;46.758;4.356;2023-04-24T04:24:59;5.30;;;2.22;;
65096;SDS011;51686;46.758;4.356;2023-04-24T04:28:19;4.93;;;2.17;;
65096;SDS011;51686;46.758;4.356;2023-04-24T04:31:26;5.22;;;2.25;;
65096;SDS011;51686;46.758;4.356;2023-04-24T04:34:25;6.72;;;2.25;;
65096;SDS011;51686;46.758;4.356;2023-04-24T04:37:33;4.72;;;2.17;;
65096;SDS011;51686;46.758;4.356;2023-04-24T04:40:27;5.07;;;2.20;;
65096;SDS011;51686;46.758;4.356;2023-04-24T04:43:35;4.95;;;2.20;;
65096;SDS011;51686;46.758;4.356;2023-04-24T04:46:42;4.85;;;2.38;;
65096;SDS011;51686;46.758;4.356;2023-04-24T04:49:39;6.63;;;2.47;;
65096;SDS011;51686;46.758;4.356;2023-04-24T04:52:34;5.65;;;2.30;;
65096;SDS011;51686;46.758;4.356;2023-04-24T04:55:26;5.95;;;2.55;;
65096;SDS011;51686;46.758;4.356;2023-04-24T04:58:30;5.45;;;2.20;;
65096;SDS011;51686;46.758;4.356;2023-04-24T05:01:27;5.05;;;2.30;;
65096;SDS011;51686;46.758;4.356;2023-04-24T05:04:24;5.93;;;2.35;;
65096;SDS011;51686;46.758;4.356;2023-04-24T05:07:23;6.22;;;2.45;;
65096;SDS011;51686;46.758;4.356;2023-04-24T05:10:21;5.15;;;2.45;;
65096;SDS011;51686;46.758;4.356;2023-04-24T05:13:18;5.75;;;2.53;;
65096;SDS011;51686;46.758;4.356;2023-04-24T05:16:27;5.60;;;2.38;;
65096;SDS011;51686;46.758;4.356;2023-04-24T05:19:22;5.00;;;2.28;;
65096;SDS011;51686;46.758;4.356;2023-04-24T05:22:26;6.85;;;2.47;;
65096;SDS011;51686;46.758;4.356;2023-04-24T05:25:23;5.65;;;2.22;;
65096;SDS011;51686;46.758;4.356;2023-04-24T05:28:42;5.38;;;2.33;;
65096;SDS011;51686;46.758;4.356;2023-04-24T05:31:57;5.22;;;2.40;;
65096;SDS011;51686;46.758;4.356;2023-04-24T05:34:46;6.22;;;2.58;;
65096;SDS011;51686;46.758;4.356;2023-04-24T05:41:32;5.55;;;2.45;;
65096;SDS011;51686;46.758;4.356;2023-04-24T05:45:06;6.00;;;2.60;;
65096;SDS011;51686;46.758;4.356;2023-04-24T05:52:35;6.35;;;2.45;;
65096;SDS011;51686;46.758;4.356;2023-04-24T05:55:41;5.60;;;2.58;;
65096;SDS011;51686;46.758;4.356;2023-04-24T05:58:47;5.70;;;2.33;;
65096;SDS011;51686;46.758;4.356;2023-04-24T06:02:31;6.43;;;2.50;;
65096;SDS011;51686;46.758;4.356;2023-04-24T06:06:06;5.45;;;2.25;;
65096;SDS011;51686;46.758;4.356;2023-04-24T06:09:54;5.78;;;2.40;;
65096;SDS011;51686;46.758;4.356;2023-04-24T06:13:29;6.38;;;2.70;;
65096;SDS011;51686;46.758;4.356;2023-04-24T06:17:01;5.18;;;2.38;;
65096;SDS011;51686;46.758;4.356;2023-04-24T06:20:24;5.78;;;2.33;;
65096;SDS011;51686;46.758;4.356;2023-04-24T06:23:41;5.60;;;2.42;;
65096;SDS011;51686;46.758;4.356;2023-04-24T06:27:19;6.10;;;2.45;;
65096;SDS011;51686;46.758;4.356;2023-04-24T06:38:03;5.28;;;2.22;;
65096;SDS011;51686;46.758;4.356;2023-04-24T06:41:26;5.13;;;2.28;;
65096;SDS011;51686;46.758;4.356;2023-04-24T06:44:55;6.13;;;2.45;;
65096;SDS011;51686;46.758;4.356;2023-04-24T06:48:04;4.90;;;2.13;;
65096;SDS011;51686;46.758;4.356;2023-04-24T06:51:34;4.63;;;2.20;;
65096;SDS011;51686;46.758;4.356;2023-04-24T06:54:41;5.05;;;2.10;;
65096;SDS011;51686;46.758;4.356;2023-04-24T06:58:18;4.85;;;2.05;;
65096;SDS011;51686;46.758;4.356;2023-04-24T07:01:10;4.65;;;1.95;;
65096;SDS011;51686;46.758;4.356;2023-04-24T07:07:32;4.63;;;2.10;;
65096;SDS011;51686;46.758;4.356;2023-04-24T07:10:45;4.63;;;2.00;;
65096;SDS011;51686;46.758;4.356;2023-04-24T07:21:07;4.95;;;1.95;;
65096;SDS011;51686;46.758;4.356;2023-04-24T07:24:14;4.75;;;2.05;;
65096;SDS011;51686;46.758;4.356;2023-04-24T07:31:45;5.03;;;1.98;;
65096;SDS011;51686;46.758;4.356;2023-04-24T07:35:14;3.78;;;1.88;;
65096;SDS011;51686;46.758;4.356;2023-04-24T07:38:55;4.00;;;1.73;;
65096;SDS011;51686;46.758;4.356;2023-04-24T07:41:47;3.80;;;1.80;;
65096;SDS011;51686;46.758;4.356;2023-04-24T07:44:59;3.08;;;1.70;;
65096;SDS011;51686;46.758;4.356;2023-04-24T07:48:07;3.45;;;1.70;;
65096;SDS011;51686;46.758;4.356;2023-04-24T07:50:59;3.90;;;1.67;;
65096;SDS011;51686;46.758;4.356;2023-04-24T07:54:05;3.83;;;1.77;;
65096;SDS011;51686;46.758;4.356;2023-04-24T08:00:04;2.75;;;1.30;;
65096;SDS011;51686;46.758;4.356;2023-04-24T08:03:03;3.25;;;1.42;;
65096;SDS011;51686;46.758;4.356;2023-04-24T08:06:03;3.20;;;1.50;;
65096;SDS011;51686;46.758;4.356;2023-04-24T08:09:24;2.30;;;1.50;;
65096;SDS011;51686;46.758;4.356;2023-04-24T08:12:38;3.92;;;1.60;;
65096;SDS011;51686;46.758;4.356;2023-04-24T08:15:50;1.98;;;1.25;;
65096;SDS011;51686;46.758;4.356;2023-04-24T08:19:21;3.78;;;1.50;;
65096;SDS011;51686;46.758;4.356;2023-04-24T08:53:53;1.73;;;1.17;;
65096;SDS011;51686;46.758;4.356;2023-04-24T08:57:26;2.03;;;1.20;;
65096;SDS011;51686;46.758;4.356;2023-04-24T09:00:38;2.38;;;1.25;;
65096;SDS011;51686;46.758;4.356;2023-04-24T09:03:29;2.53;;;1.30;;
65096;SDS011;51686;46.758;4.356;2023-04-24T09:09:57;2.80;;;1.25;;
65096;SDS011;51686;46.758;4.356;2023-04-24T09:13:08;2.10;;;1.17;;
65096;SDS011;51686;46.758;4.356;2023-04-24T09:16:21;1.48;;;1.20;;
65096;SDS011;51686;46.758;4.356;2023-04-24T09:19:13;1.65;;;1.00;;
65096;SDS011;51686;46.758;4.356;2023-04-24T09:22:32;2.70;;;1.20;;
65096;SDS011;51686;46.758;4.356;2023-04-24T09:25:37;3.53;;;1.40;;
65096;SDS011;51686;46.758;4.356;2023-04-24T09:35:27;2.40;;;1.20;;
65096;SDS011;51686;46.758;4.356;2023-04-24T09:38:57;1.63;;;1.15;;
65096;SDS011;51686;46.758;4.356;2023-04-24T09:42:29;1.15;;;1.00;;
65096;SDS011;51686;46.758;4.356;2023-04-24T09:45:55;2.28;;;1.30;;
65096;SDS011;51686;46.758;4.356;2023-04-24T09:53:48;2.22;;;1.25;;
65096;SDS011;51686;46.758;4.356;2023-04-24T10:05:51;2.03;;;1.20;;
65096;SDS011;51686;46.758;4.356;2023-04-24T10:08:41;2.05;;;1.10;;
65096;SDS011;51686;46.758;4.356;2023-04-24T10:12:24;3.47;;;1.42;;
65096;SDS011;51686;46.758;4.356;2023-04-24T10:20:58;1.83;;;1.20;;
65096;SDS011;51686;46.758;4.356;2023-04-24T10:28:42;3.08;;;1.20;;
65096;SDS011;51686;46.758;4.356;2023-04-24T10:32:01;1.40;;;1.05;;
65096;SDS011;51686;46.758;4.356;2023-04-24T10:35:37;1.67;;;1.20;;
65096;SDS011;51686;46.758;4.356;2023-04-24T10:46:29;3.60;;;1.50;;
65096;SDS011;51686;46.758;4.356;2023-04-24T10:50:06;2.63;;;1.30;;
65096;SDS011;51686;46.758;4.356;2023-04-24T10:53:23;2.35;;;1.33;;
65096;SDS011;51686;46.758;4.356;2023-04-24T11:00:26;2.53;;;1.20;;
65096;SDS011;51686;46.758;4.356;2023-04-24T11:03:34;2.55;;;1.40;;
65096;SDS011;51686;46.758;4.356;2023-04-24T11:15:34;2.10;;;1.25;;
65096;SDS011;51686;46.758;4.356;2023-04-24T11:18:28;2.00;;;1.30;;
65096;SDS011;51686;46.758;4.356;2023-04-24T11:34:05;2.95;;;1.30;;
65096;SDS011;51686;46.758;4.356;2023-04-24T11:37:58;2.55;;;1.50;;
65096;SDS011;51686;46.758;4.356;2023-04-24T11:41:13;2.42;;;1.30;;
65096;SDS011;51686;46.758;4.356;2023-04-24T11:44:37;1.90;;;1.10;;
65096;SDS011;51686;46.758;4.356;2023-04-24T11:55:28;2.03;;;1.30;;
65096;SDS011;51686;46.758;4.356;2023-04-24T11:59:09;2.15;;;1.20;;
65096;SDS011;51686;46.758;4.356;2023-04-24T12:02:30;2.65;;;1.30;;
65096;SDS011;51686;46.758;4.356;2023-04-24T12:05:38;2.88;;;1.40;;
65096;SDS011;51686;46.758;4.356;2023-04-24T12:11:56;3.35;;;1.38;;
65096;SDS011;51686;46.758;4.356;2023-04-24T12:14:49;3.40;;;1.50;;
65096;SDS011;51686;46.758;4.356;2023-04-24T12:17:45;2.58;;;1.20;;
65096;SDS011;51686;46.758;4.356;2023-04-24T12:20:35;3.75;;;1.48;;
65096;SDS011;51686;46.758;4.356;2023-04-24T12:23:34;3.92;;;1.55;;
65096;SDS011;51686;46.758;4.356;2023-04-24T12:26:24;2.90;;;1.55;;
65096;SDS011;51686;46.758;4.356;2023-04-24T12:29:19;2.35;;;1.30;;
65096;SDS011;51686;46.758;4.356;2023-04-24T12:32:18;3.53;;;1.50;;
65096;SDS011;51686;46.758;4.356;2023-04-24T12:35:08;3.40;;;1.50;;
65096;SDS011;51686;46.758;4.356;2023-04-24T12:38:09;2.97;;;1.40;;
65096;SDS011;51686;46.758;4.356;2023-04-24T12:41:21;2.22;;;1.33;;
65096;SDS011;51686;46.758;4.356;2023-04-24T12:44:14;1.83;;;1.10;;
65096;SDS011;51686;46.758;4.356;2023-04-24T12:47:40;1.50;;;1.00;;
65096;SDS011;51686;46.758;4.356;2023-04-24T12:50:33;1.88;;;1.02;;
65096;SDS011;51686;46.758;4.356;2023-04-24T12:53:31;2.92;;;1.27;;
65096;SDS011;51686;46.758;4.356;2023-04-24T12:56:27;2.50;;;1.20;;
65096;SDS011;51686;46.758;4.356;2023-04-24T12:59:30;1.63;;;1.00;;
65096;SDS011;51686;46.758;4.356;2023-04-24T13:02:22;2.70;;;1.20;;
65096;SDS011;51686;46.758;4.356;2023-04-24T13:05:28;2.30;;;1.17;;
65096;SDS011;51686;46.758;4.356;2023-04-24T13:08:19;1.88;;;1.10;;
65096;SDS011;51686;46.758;4.356;2023-04-24T13:11:32;2.35;;;1.30;;
65096;SDS011;51686;46.758;4.356;2023-04-24T13:15:08;2.75;;;1.27;;
65096;SDS011;51686;46.758;4.356;2023-04-24T13:21:58;1.80;;;1.00;;
65096;SDS011;51686;46.758;4.356;2023-04-24T13:29:25;1.48;;;1.00;;
65096;SDS011;51686;46.758;4.356;2023-04-24T13:35:35;1.98;;;1.20;;
65096;SDS011;51686;46.758;4.356;2023-04-24T13:38:21;1.50;;;1.10;;
65096;SDS011;51686;46.758;4.356;2023-04-24T13:41:09;1.65;;;1.02;;
65096;SDS011;51686;46.758;4.356;2023-04-24T13:43:56;1.13;;;1.00;;
65096;SDS011;51686;46.758;4.356;2023-04-24T13:46:43;2.10;;;1.02;;
65096;SDS011;51686;46.758;4.356;2023-04-24T13:49:31;1.10;;;1.00;;
65096;SDS011;51686;46.758;4.356;2023-04-24T13:52:18;1.85;;;1.23;;
65096;SDS011;51686;46.758;4.356;2023-04-24T13:55:05;0.93;;;0.88;;
65096;SDS011;51686;46.758;4.356;2023-04-24T13:57:52;2.20;;;1.30;;
65096;SDS011;51686;46.758;4.356;2023-04-24T14:00:41;3.08;;;1.20;;
65096;SDS011;51686;46.758;4.356;2023-04-24T14:03:28;2.38;;;1.27;;
65096;SDS011;51686;46.758;4.356;2023-04-24T14:06:15;2.35;;;1.23;;
65096;SDS011;51686;46.758;4.356;2023-04-24T14:09:02;1.75;;;1.17;;
65096;SDS011;51686;46.758;4.356;2023-04-24T14:11:49;2.38;;;1.27;;
65096;SDS011;51686;46.758;4.356;2023-04-24T14:14:36;1.90;;;1.00;;
65096;SDS011;51686;46.758;4.356;2023-04-24T14:17:23;2.10;;;1.20;;
65096;SDS011;51686;46.758;4.356;2023-04-24T14:20:10;2.13;;;1.13;;
65096;SDS011;51686;46.758;4.356;2023-04-24T14:22:58;1.95;;;1.20;;
65096;SDS011;51686;46.758;4.356;2023-04-24T14:25:46;1.98;;;1.23;;
65096;SDS011;51686;46.758;4.356;2023-04-24T14:28:37;1.83;;;1.23;;
65096;SDS011;51686;46.758;4.356;2023-04-24T14:31:24;1.63;;;1.20;;
65096;SDS011;51686;46.758;4.356;2023-04-24T14:34:11;2.08;;;1.20;;
65096;SDS011;51686;46.758;4.356;2023-04-24T14:36:58;3.08;;;1.55;;
65096;SDS011;51686;46.758;4.356;2023-04-24T14:39:45;2.72;;;1.30;;
65096;SDS011;51686;46.758;4.356;2023-04-24T14:42:46;2.83;;;1.20;;
65096;SDS011;51686;46.758;4.356;2023-04-24T14:45:33;3.17;;;1.00;;
65096;SDS011;51686;46.758;4.356;2023-04-24T14:48:20;1.80;;;1.20;;
65096;SDS011;51686;46.758;4.356;2023-04-24T14:51:06;3.08;;;1.20;;
65096;SDS011;51686;46.758;4.356;2023-04-24T14:53:53;2.85;;;1.23;;
65096;SDS011;51686;46.758;4.356;2023-04-24T14:56:40;1.75;;;1.23;;
65096;SDS011;51686;46.758;4.356;2023-04-24T14:59:29;1.55;;;1.00;;
65096;SDS011;51686;46.758;4.356;2023-04-24T15:02:17;1.75;;;1.02;;
65096;SDS011;51686;46.758;4.356;2023-04-24T15:05:07;2.03;;;1.10;;
65096;SDS011;51686;46.758;4.356;2023-04-24T15:07:55;1.48;;;1.10;;
65096;SDS011;51686;46.758;4.356;2023-04-24T15:10:42;3.03;;;1.27;;
65096;SDS011;51686;46.758;4.356;2023-04-24T15:13:29;1.88;;;1.30;;
65096;SDS011;51686;46.758;4.356;2023-04-24T15:16:16;1.48;;;1.20;;
65096;SDS011;51686;46.758;4.356;2023-04-24T15:19:03;2.58;;;1.25;;
65096;SDS011;51686;46.758;4.356;2023-04-24T15:21:50;2.05;;;1.30;;
65096;SDS011;51686;46.758;4.356;2023-04-24T15:24:37;2.38;;;1.30;;
65096;SDS011;51686;46.758;4.356;2023-04-24T15:27:24;1.52;;;1.20;;
65096;SDS011;51686;46.758;4.356;2023-04-24T15:30:11;2.13;;;1.30;;
65096;SDS011;51686;46.758;4.356;2023-04-24T15:32:59;2.70;;;1.45;;
65096;SDS011;51686;46.758;4.356;2023-04-24T15:35:47;2.40;;;1.40;;
65096;SDS011;51686;46.758;4.356;2023-04-24T15:38:35;1.98;;;1.17;;
65096;SDS011;51686;46.758;4.356;2023-04-24T15:41:22;2.75;;;1.10;;
65096;SDS011;51686;46.758;4.356;2023-04-24T15:44:09;3.17;;;1.20;;
65096;SDS011;51686;46.758;4.356;2023-04-24T15:46:56;2.28;;;1.20;;
65096;SDS011;51686;46.758;4.356;2023-04-24T15:49:43;1.98;;;1.02;;
65096;SDS011;51686;46.758;4.356;2023-04-24T15:52:30;1.98;;;1.02;;
65096;SDS011;51686;46.758;4.356;2023-04-24T15:55:17;4.75;;;1.20;;
65096;SDS011;51686;46.758;4.356;2023-04-24T15:58:04;1.63;;;1.00;;
65096;SDS011;51686;46.758;4.356;2023-04-24T16:00:51;1.70;;;1.08;;
65096;SDS011;51686;46.758;4.356;2023-04-24T16:03:39;2.28;;;1.20;;
65096;SDS011;51686;46.758;4.356;2023-04-24T16:06:27;1.88;;;1.20;;
65096;SDS011;51686;46.758;4.356;2023-04-24T16:09:14;1.75;;;1.00;;
65096;SDS011;51686;46.758;4.356;2023-04-24T16:12:00;1.73;;;1.23;;
65096;SDS011;51686;46.758;4.356;2023-04-24T16:14:47;2.20;;;1.25;;
65096;SDS011;51686;46.758;4.356;2023-04-24T16:17:34;1.88;;;1.20;;
65096;SDS011;51686;46.758;4.356;2023-04-24T16:20:22;2.50;;;1.30;;
65096;SDS011;51686;46.758;4.356;2023-04-24T16:23:09;2.65;;;1.38;;
65096;SDS011;51686;46.758;4.356;2023-04-24T16:25:55;2.35;;;1.20;;
65096;SDS011;51686;46.758;4.356;2023-04-24T16:28:42;2.10;;;1.20;;
65096;SDS011;51686;46.758;4.356;2023-04-24T16:31:29;3.28;;;1.25;;
65096;SDS011;51686;46.758;4.356;2023-04-24T16:34:16;2.75;;;1.42;;
65096;SDS011;51686;46.758;4.356;2023-04-24T16:37:03;1.90;;;1.15;;
65096;SDS011;51686;46.758;4.356;2023-04-24T16:39:52;2.20;;;1.13;;
65096;SDS011;51686;46.758;4.356;2023-04-24T16:42:40;1.38;;;1.10;;
65096;SDS011;51686;46.758;4.356;2023-04-24T16:45:27;1.98;;;1.25;;
65096;SDS011;51686;46.758;4.356;2023-04-24T16:48:14;2.67;;;1.30;;
65096;SDS011;51686;46.758;4.356;2023-04-24T16:51:01;2.88;;;1.20;;
65096;SDS011;51686;46.758;4.356;2023-04-24T16:53:48;2.45;;;1.40;;
65096;SDS011;51686;46.758;4.356;2023-04-24T16:56:35;2.33;;;1.30;;
65096;SDS011;51686;46.758;4.356;2023-04-24T16:59:22;2.50;;;1.20;;
65096;SDS011;51686;46.758;4.356;2023-04-24T17:02:09;3.47;;;1.30;;
65096;SDS011;51686;46.758;4.356;2023-04-24T17:04:56;2.83;;;1.30;;
65096;SDS011;51686;46.758;4.356;2023-04-24T17:07:43;2.20;;;1.20;;
65096;SDS011;51686;46.758;4.356;2023-04-24T17:10:30;2.15;;;1.30;;
65096;SDS011;51686;46.758;4.356;2023-04-24T17:13:17;3.30;;;1.50;;
65096;SDS011;51686;46.758;4.356;2023-04-24T17:16:04;2.97;;;1.60;;
65096;SDS011;51686;46.758;4.356;2023-04-24T17:18:51;2.15;;;1.30;;
65096;SDS011;51686;46.758;4.356;2023-04-24T17:21:38;2.90;;;1.50;;
65096;SDS011;51686;46.758;4.356;2023-04-24T17:24:25;2.97;;;1.42;;
65096;SDS011;51686;46.758;4.356;2023-04-24T17:27:12;3.42;;;1.50;;
65096;SDS011;51686;46.758;4.356;2023-04-24T17:30:01;2.17;;;1.35;;
65096;SDS011;51686;46.758;4.356;2023-04-24T17:32:48;2.45;;;1.40;;
65096;SDS011;51686;46.758;4.356;2023-04-24T17:35:35;2.50;;;1.40;;
65096;SDS011;51686;46.758;4.356;2023-04-24T17:38:22;2.22;;;1.30;;
65096;SDS011;51686;46.758;4.356;2023-04-24T17:41:10;2.97;;;1.45;;
65096;SDS011;51686;46.758;4.356;2023-04-24T17:43:56;3.05;;;1.40;;
65096;SDS011;51686;46.758;4.356;2023-04-24T17:46:43;2.10;;;1.30;;
65096;SDS011;51686;46.758;4.356;2023-04-24T17:49:31;1.88;;;1.20;;
65096;SDS011;51686;46.758;4.356;2023-04-24T17:52:18;1.90;;;1.38;;
65096;SDS011;51686;46.758;4.356;2023-04-24T17:55:05;1.55;;;1.30;;
65096;SDS011;51686;46.758;4.356;2023-04-24T17:57:52;2.38;;;1.38;;
65096;SDS011;51686;46.758;4.356;2023-04-24T18:00:39;2.08;;;1.38;;
65096;SDS011;51686;46.758;4.356;2023-04-24T18:03:26;3.00;;;1.50;;
65096;SDS011;51686;46.758;4.356;2023-04-24T18:06:14;2.78;;;1.50;;
65096;SDS011;51686;46.758;4.356;2023-04-24T18:09:03;2.35;;;1.42;;
65096;SDS011;51686;46.758;4.356;2023-04-24T18:11:50;3.30;;;1.33;;
65096;SDS011;51686;46.758;4.356;2023-04-24T18:14:36;3.10;;;1.45;;
65096;SDS011;51686;46.758;4.356;2023-04-24T18:17:23;2.75;;;1.45;;
65096;SDS011;51686;46.758;4.356;2023-04-24T18:20:12;4.47;;;1.90;;
65096;SDS011;51686;46.758;4.356;2023-04-24T18:22:59;5.20;;;2.10;;
65096;SDS011;51686;46.758;4.356;2023-04-24T18:28:35;4.78;;;1.80;;
65096;SDS011;51686;46.758;4.356;2023-04-24T18:31:22;4.32;;;1.60;;
65096;SDS011;51686;46.758;4.356;2023-04-24T18:34:09;4.13;;;1.60;;
65096;SDS011;51686;46.758;4.356;2023-04-24T18:36:56;2.80;;;1.45;;
65096;SDS011;51686;46.758;4.356;2023-04-24T18:39:43;3.20;;;1.58;;
65096;SDS011;51686;46.758;4.356;2023-04-24T18:42:30;3.78;;;1.73;;
65096;SDS011;51686;46.758;4.356;2023-04-24T18:45:17;3.42;;;1.50;;
65096;SDS011;51686;46.758;4.356;2023-04-24T18:48:04;3.10;;;1.50;;
65096;SDS011;51686;46.758;4.356;2023-04-24T18:50:51;2.20;;;1.27;;
65096;SDS011;51686;46.758;4.356;2023-04-24T18:53:38;3.92;;;1.40;;
65096;SDS011;51686;46.758;4.356;2023-04-24T18:56:25;6.47;;;1.60;;
65096;SDS011;51686;46.758;4.356;2023-04-24T18:59:12;2.13;;;1.50;;
65096;SDS011;51686;46.758;4.356;2023-04-24T19:01:59;3.13;;;1.60;;
65096;SDS011;51686;46.758;4.356;2023-04-24T19:04:46;2.70;;;1.38;;
65096;SDS011;51686;46.758;4.356;2023-04-24T19:07:33;3.03;;;1.55;;
65096;SDS011;51686;46.758;4.356;2023-04-24T19:10:19;3.83;;;1.70;;
65096;SDS011;51686;46.758;4.356;2023-04-24T19:13:06;3.85;;;1.42;;
65096;SDS011;51686;46.758;4.356;2023-04-24T19:15:53;4.03;;;1.60;;
65096;SDS011;51686;46.758;4.356;2023-04-24T19:18:40;2.78;;;1.48;;
65096;SDS011;51686;46.758;4.356;2023-04-24T19:21:27;3.33;;;1.63;;
65096;SDS011;51686;46.758;4.356;2023-04-24T19:24:14;2.47;;;1.40;;
65096;SDS011;51686;46.758;4.356;2023-04-24T19:27:02;2.80;;;1.50;;
65096;SDS011;51686;46.758;4.356;2023-04-24T19:29:48;2.38;;;1.30;;
65096;SDS011;51686;46.758;4.356;2023-04-24T19:32:37;2.90;;;1.40;;
65096;SDS011;51686;46.758;4.356;2023-04-24T19:35:24;2.33;;;1.40;;
65096;SDS011;51686;46.758;4.356;2023-04-24T19:38:11;2.83;;;1.40;;
65096;SDS011;51686;46.758;4.356;2023-04-24T19:40:58;3.22;;;1.40;;
65096;SDS011;51686;46.758;4.356;2023-04-24T19:43:45;2.22;;;1.58;;
65096;SDS011;51686;46.758;4.356;2023-04-24T19:46:33;3.65;;;1.70;;
65096;SDS011;51686;46.758;4.356;2023-04-24T19:49:20;2.95;;;1.60;;
65096;SDS011;51686;46.758;4.356;2023-04-24T19:52:07;3.00;;;1.55;;
65096;SDS011;51686;46.758;4.356;2023-04-24T19:54:54;3.70;;;1.80;;
65096;SDS011;51686;46.758;4.356;2023-04-24T19:57:41;3.85;;;1.60;;
65096;SDS011;51686;46.758;4.356;2023-04-24T20:00:28;3.45;;;1.67;;
65096;SDS011;51686;46.758;4.356;2023-04-24T20:03:15;3.80;;;1.58;;
65096;SDS011;51686;46.758;4.356;2023-04-24T20:06:18;3.95;;;1.70;;
65096;SDS011;51686;46.758;4.356;2023-04-24T20:09:04;3.90;;;1.67;;
65096;SDS011;51686;46.758;4.356;2023-04-24T20:11:52;3.25;;;1.73;;
65096;SDS011;51686;46.758;4.356;2023-04-24T20:14:39;4.30;;;1.63;;
65096;SDS011;51686;46.758;4.356;2023-04-24T20:17:26;4.65;;;1.63;;
65096;SDS011;51686;46.758;4.356;2023-04-24T20:20:13;3.22;;;1.50;;
65096;SDS011;51686;46.758;4.356;2023-04-24T20:23:00;2.92;;;1.45;;
65096;SDS011;51686;46.758;4.356;2023-04-24T20:25:47;4.57;;;1.60;;